Time;durP1;ratioP1;P1;durP2;ratioP2;P2;SDS_P1;SDS_P2;PMS_P1;PMS_P2;Temp;Humidity;BMP_temperature;BMP_pressure;BME280_temperature;BME280_humidity;BME280_pressure;Samples;Min_cycle;Max_cycle;Signal;HPM_P1;HPM_P2
2022/11/28 00:00:54;;;;;;;;;;;;;;;21.20;52.11;101538.84;5102537;27;4038;-62
2022/11/28 00:03:21;;;;;;;;;;;;;;;21.20;52.23;101543.84;5105773;27;4177;-62
2022/11/28 00:05:47;;;;;;;;;;;;;;;21.20;52.07;101541.72;5104381;27;4171;-62
2022/11/28 00:08:14;;;;;;;;;;;;;;;21.19;52.09;101540.22;5101042;27;5296;-61
2022/11/28 00:10:40;;;;;;;;;;;;;;;21.19;51.93;101533.72;5104584;27;4150;-62
2022/11/28 00:13:06;;;;;;;;;;;;;;;21.18;52.26;101518.56;5100956;27;4346;-61
2022/11/28 00:15:33;;;;;;;;;;;;;;;21.18;52.18;101524.31;5103619;27;5207;-61
2022/11/28 00:17:59;;;;;;;;;;;;;;;21.17;52.21;101507.69;5099392;27;4120;-62
2022/11/28 00:20:26;;;;;;;;;;;;;;;21.16;52.04;101509.81;5101739;27;4302;-62
2022/11/28 00:22:52;;;;;;;;;;;;;;;21.16;51.94;101509.81;5103521;27;5143;-61
2022/11/28 00:25:18;;;;;;;;;;;;;;;21.16;52.19;101506.19;5100717;27;5286;-61
2022/11/28 00:27:44;;;;;;;;;;;;;;;21.15;52.12;101507.59;5103348;27;4331;-61
2022/11/28 00:30:11;;;;;;;;;;;;;;;21.15;51.88;101507.59;5081017;28;6543;-61
2022/11/28 00:32:37;;;;;;;;;;;;;;;21.14;51.99;101506.81;5099520;27;5220;-62
2022/11/28 00:35:04;;;;;;;;;;;;;;;21.12;52.06;101495.22;5103776;27;4188;-61
2022/11/28 00:37:30;;;;;;;;;;;;;;;21.12;51.96;101503.84;5097544;27;5348;-62
2022/11/28 00:39:56;;;;;;;;;;;;;;;21.12;52.00;101509.63;5100038;27;5214;-61
2022/11/28 00:42:23;;;;;;;;;;;;;;;21.11;52.00;101502.34;5098342;28;5641;-61
2022/11/28 00:44:49;;;;;;;;;;;;;;;21.11;51.92;101508.09;5111267;27;5276;-61
2022/11/28 00:47:15;;;;;;;;;;;;;;;21.13;51.85;101516.84;5110932;27;6337;-61
2022/11/28 00:49:42;;;;;;;;;;;;;;;21.13;52.07;101508.22;5105548;27;4365;-62
2022/11/28 00:52:08;;;;;;;;;;;;;;;21.14;52.27;101501.06;5097108;27;4153;-61
2022/11/28 00:54:34;;;;;;;;;;;;;;;21.15;52.05;101502.56;5110368;27;4149;-61
2022/11/28 00:57:01;;;;;;;;;;;;;;;21.16;51.90;101495.41;5111275;27;4063;-61
2022/11/28 00:59:27;;;;;;;;;;;;;;;21.17;52.00;101494.03;5106443;27;5165;-61
2022/11/28 01:01:53;;;;;;;;;;;;;;;21.17;51.81;101484.66;5106437;27;4410;-61
2022/11/28 01:04:20;;;;;;;;;;;;;;;21.17;52.01;101476.75;5103000;27;4233;-65
2022/11/28 01:06:47;;;;;;;;;;;;;;;21.16;52.13;101475.25;5096289;27;4008;-61
2022/11/28 01:09:17;;;;;;;;;;;;;;;21.17;52.17;101482.53;5108135;27;4095;-62
2022/11/28 01:11:43;;;;;;;;;;;;;;;21.15;52.27;101485.28;5100989;27;4125;-61
2022/11/28 01:14:10;;;;;;;;;;;;;;;21.15;52.37;101479.53;5106074;27;4061;-61
2022/11/28 01:16:36;;;;;;;;;;;;;;;21.15;52.48;101473.03;5102432;27;4210;-61
2022/11/28 01:19:03;;;;;;;;;;;;;;;21.15;52.42;101482.41;5108458;27;4005;-61
2022/11/28 01:21:29;;;;;;;;;;;;;;;21.14;52.42;101472.25;5102067;27;3957;-61
2022/11/28 01:23:55;;;;;;;;;;;;;;;21.13;52.27;101468.63;5106674;27;4252;-61
2022/11/28 01:26:22;;;;;;;;;;;;;;;21.12;52.57;101464.28;5105540;27;5210;-62
2022/11/28 01:28:49;;;;;;;;;;;;;;;21.12;52.53;101463.53;5103764;27;4213;-62
2022/11/28 01:31:16;;;;;;;;;;;;;;;21.11;52.41;101464.91;5106182;27;4162;-61
2022/11/28 01:33:43;;;;;;;;;;;;;;;21.10;52.59;101455.53;5099185;27;4176;-61
2022/11/28 01:36:09;;;;;;;;;;;;;;;21.10;52.50;101449.78;5105991;27;3985;-61
2022/11/28 01:38:35;;;;;;;;;;;;;;;21.10;52.41;101454.78;5101036;27;4023;-62
2022/11/28 01:41:02;;;;;;;;;;;;;;;21.09;52.54;101453.28;5076367;27;4064;-62
2022/11/28 01:43:28;;;;;;;;;;;;;;;21.09;52.54;101450.41;5100461;27;4164;-61
2022/11/28 01:45:54;;;;;;;;;;;;;;;21.10;52.45;101443.28;5107357;27;4133;-61
2022/11/28 01:48:25;;;;;;;;;;;;;;;21.09;52.36;101441.75;5101720;27;4161;-62
2022/11/28 01:50:52;;;;;;;;;;;;;;;21.09;52.19;101441.75;5084530;27;5340;-61
2022/11/28 01:53:19;;;;;;;;;;;;;;;21.09;52.28;101444.66;5102276;27;5195;-62
2022/11/28 01:55:47;;;;;;;;;;;;;;;21.06;52.19;101438.03;5101758;27;4119;-61
2022/11/28 01:58:13;;;;;;;;;;;;;;;21.07;52.06;101441.66;5103861;27;4074;-62
2022/11/28 02:00:40;;;;;;;;;;;;;;;21.06;52.17;101428.66;5107326;27;4142;-62
2022/11/28 02:03:10;;;;;;;;;;;;;;;21.06;52.14;101431.53;5097894;27;3977;-62
2022/11/28 02:05:36;;;;;;;;;;;;;;;21.05;52.40;101424.28;5101370;27;4143;-62
2022/11/28 02:08:03;;;;;;;;;;;;;;;21.06;51.88;101425.78;5089907;28;3958;-61
2022/11/28 02:10:52;;;;;;;;;;;;;;;21.04;52.00;101422.78;5100888;27;5046;-61
2022/11/28 02:13:26;;;;;;;;;;;;;;;21.04;52.00;101417.03;5082782;27;4112;-61
2022/11/28 02:16:08;;;;;;;;;;;;;;;21.02;51.96;101408.28;5086766;28;4139;-61
2022/11/28 02:22:08;;;;;;;;;;;;;;;21.02;51.96;101408.28;5071558;27;4067;-61
2022/11/28 02:24:42;;;;;;;;;;;;;;;21.00;51.73;101408.91;5102805;27;4018;-61
2022/11/28 02:27:15;;;;;;;;;;;;;;;21.01;51.70;101403.91;5106470;27;4163;-61
2022/11/28 02:29:47;;;;;;;;;;;;;;;21.00;51.87;101399.53;5100349;27;3926;-62
2022/11/28 02:32:24;;;;;;;;;;;;;;;20.99;51.60;101398.78;5104352;27;3871;-62
2022/11/28 02:34:55;;;;;;;;;;;;;;;21.00;51.71;101406.03;5091572;27;4064;-62
2022/11/28 02:37:27;;;;;;;;;;;;;;;20.98;51.62;101402.31;5106283;27;3979;-61
2022/11/28 02:39:56;;;;;;;;;;;;;;;20.98;51.83;101396.53;5090455;28;4158;-62
2022/11/28 02:42:25;;;;;;;;;;;;;;;20.97;51.58;101383.53;5108164;27;3983;-62
2022/11/28 02:44:54;;;;;;;;;;;;;;;20.97;51.83;101389.31;5092232;27;4243;-62
2022/11/28 02:47:25;;;;;;;;;;;;;;;20.96;51.79;101388.56;5108539;27;4054;-62
2022/11/28 02:49:54;;;;;;;;;;;;;;;20.96;51.84;101393.56;5105425;27;5356;-62
2022/11/28 02:52:21;;;;;;;;;;;;;;;20.95;51.59;101386.31;5090464;28;4017;-62
2022/11/28 02:54:47;;;;;;;;;;;;;;;20.95;51.73;101375.53;5106755;27;4186;-62
2022/11/28 02:57:14;;;;;;;;;;;;;;;20.93;51.54;101378.31;5094772;28;5194;-62
2022/11/28 02:59:40;;;;;;;;;;;;;;;20.93;51.86;101376.16;5101579;27;5183;-62
2022/11/28 03:02:22;;;;;;;;;;;;;;;20.93;51.68;101384.81;5093851;28;4156;-61
2022/11/28 03:04:55;;;;;;;;;;;;;;;20.94;51.44;101379.81;5108374;28;5340;-61
2022/11/28 03:07:44;;;;;;;;;;;;;;;20.95;51.83;101369.03;5105185;27;5395;-62
2022/11/28 03:10:29;;;;;;;;;;;;;;;20.96;51.55;101370.53;5069555;28;4097;-61
2022/11/28 03:13:07;;;;;;;;;;;;;;;20.97;51.56;101366.28;5113066;28;4144;-61
2022/11/28 03:15:40;;;;;;;;;;;;;;;20.98;51.85;101370.63;5094659;28;4778;-61
2022/11/28 03:18:14;;;;;;;;;;;;;;;20.99;51.90;101358.47;5094117;28;4184;-62
2022/11/28 03:20:48;;;;;;;;;;;;;;;20.98;51.83;101354.13;5096321;27;4122;-61
2022/11/28 03:23:18;;;;;;;;;;;;;;;21.00;52.05;101350.59;5096182;28;4156;-61
2022/11/28 03:25:57;;;;;;;;;;;;;;;20.99;51.99;101349.09;5087093;28;5546;-61
2022/11/28 03:28:25;;;;;;;;;;;;;;;21.00;51.95;101347.72;5105694;27;5594;-62
2022/11/28 03:30:52;;;;;;;;;;;;;;;20.98;52.08;101345.50;5090927;28;4154;-61
2022/11/28 03:33:20;;;;;;;;;;;;;;;20.97;52.21;101354.75;5112454;27;5258;-61
2022/11/28 03:35:48;;;;;;;;;;;;;;;20.97;52.13;101351.88;5089641;28;4752;-61
2022/11/28 03:38:21;;;;;;;;;;;;;;;20.96;52.25;101353.25;5096482;28;4003;-61
2022/11/28 03:40:48;;;;;;;;;;;;;;;20.96;52.31;101359.00;5106574;27;4113;-61
2022/11/28 03:43:16;;;;;;;;;;;;;;;20.96;52.01;101347.50;5107116;28;4174;-62
2022/11/28 03:45:49;;;;;;;;;;;;;;;20.97;51.87;101338.22;5094288;28;4208;-61
2022/11/28 03:48:18;;;;;;;;;;;;;;;20.98;52.06;101330.31;5092144;28;4026;-60
2022/11/28 03:50:46;;;;;;;;;;;;;;;20.98;52.20;101328.22;5094038;27;4104;-60
2022/11/28 03:53:13;;;;;;;;;;;;;;;21.01;51.98;101331.94;5093940;28;5263;-61
2022/11/28 03:55:41;;;;;;;;;;;;;;;21.02;52.07;101327.66;5092565;28;4121;-61
2022/11/28 03:58:10;;;;;;;;;;;;;;;21.03;52.29;101324.16;5090177;28;4743;-61
2022/11/28 04:00:37;;;;;;;;;;;;;;;21.05;52.30;101321.38;5090073;28;4146;-60
2022/11/28 04:03:07;;;;;;;;;;;;;;;21.06;52.30;101316.34;5092734;28;4028;-60
2022/11/28 04:05:53;;;;;;;;;;;;;;;21.07;51.97;101309.97;5094604;27;4072;-60
2022/11/28 04:08:20;;;;;;;;;;;;;;;21.09;52.08;101309.31;5111381;28;4306;-60
2022/11/28 04:10:55;;;;;;;;;;;;;;;21.10;52.22;101313.69;5092871;27;4124;-61
2022/11/28 04:13:25;;;;;;;;;;;;;;;21.11;51.92;101306.53;5096002;27;4241;-61
2022/11/28 04:16:03;;;;;;;;;;;;;;;21.12;52.20;101308.03;5102557;27;5248;-60
2022/11/28 04:18:41;;;;;;;;;;;;;;;21.12;52.25;101313.78;5120176;27;3935;-60
2022/11/28 04:21:13;;;;;;;;;;;;;;;21.13;52.06;101309.50;5095008;28;4053;-63
2022/11/28 04:23:39;;;;;;;;;;;;;;;20.92;51.55;101308.47;5095930;27;4114;-61
2022/11/28 04:26:07;;;;;;;;;;;;;;;20.88;51.93;101308.25;5082589;28;4233;-61
2022/11/28 04:28:34;;;;;;;;;;;;;;;20.97;50.79;101297.19;5092400;28;4076;-61
2022/11/28 04:31:00;;;;;;;;;;;;;;;21.02;51.16;101298.88;5095605;28;4125;-61
2022/11/28 04:33:27;;;;;;;;;;;;;;;21.04;51.06;101288.19;5091740;27;4169;-61
2022/11/28 04:35:54;;;;;;;;;;;;;;;21.06;51.26;101288.31;5086692;28;4039;-61
2022/11/28 04:38:20;;;;;;;;;;;;;;;21.07;51.28;101292.69;5084015;28;4136;-60
2022/11/28 04:40:49;;;;;;;;;;;;;;;21.07;51.44;101283.28;5083768;28;4199;-61
2022/11/28 04:43:20;;;;;;;;;;;;;;;21.07;51.37;101284.03;5088520;28;4157;-61
2022/11/28 04:45:50;;;;;;;;;;;;;;;21.08;51.40;101290.53;5092889;27;4225;-61
2022/11/28 04:48:17;;;;;;;;;;;;;;;21.07;51.47;101280.41;5082143;28;5266;-61
2022/11/28 04:51:03;;;;;;;;;;;;;;;21.06;51.73;101293.31;5074814;27;5143;-61
2022/11/28 04:53:31;;;;;;;;;;;;;;;21.05;51.79;101291.81;5078159;28;4150;-61
2022/11/28 04:56:00;;;;;;;;;;;;;;;21.05;51.58;101291.81;5067202;28;4160;-61
2022/11/28 04:58:31;;;;;;;;;;;;;;;21.05;51.45;101288.94;5068083;28;4114;-62
2022/11/28 05:00:57;;;;;;;;;;;;;;;21.06;51.54;101287.56;5072138;28;4098;-61
2022/11/28 05:03:25;;;;;;;;;;;;;;;21.06;51.62;101282.53;5081775;28;4814;-61
2022/11/28 05:05:51;;;;;;;;;;;;;;;21.08;51.63;101287.66;5075109;28;4525;-61
2022/11/28 05:08:18;;;;;;;;;;;;;;;21.09;51.26;101287.00;5085542;28;3970;-61
2022/11/28 05:10:44;;;;;;;;;;;;;;;21.09;51.60;101287.00;5075178;28;5184;-60
2022/11/28 05:13:11;;;;;;;;;;;;;;;21.11;51.45;101284.22;5076591;28;4009;-61
2022/11/28 05:15:37;;;;;;;;;;;;;;;21.13;51.69;101289.34;5089762;28;5179;-61
2022/11/28 05:18:03;;;;;;;;;;;;;;;21.12;51.61;101288.63;5084764;28;4089;-61
2022/11/28 05:20:30;;;;;;;;;;;;;;;21.13;51.49;101286.47;5083039;28;4177;-61
2022/11/28 05:22:56;;;;;;;;;;;;;;;21.13;51.36;101286.47;5081212;28;4025;-61
2022/11/28 05:25:22;;;;;;;;;;;;;;;21.12;51.58;101285.00;5078992;28;4039;-61
2022/11/28 05:27:48;;;;;;;;;;;;;;;21.12;51.56;101279.22;5085763;28;4841;-61
2022/11/28 05:30:15;;;;;;;;;;;;;;;21.11;51.45;101286.38;5083412;28;4143;-61
2022/11/28 05:32:41;;;;;;;;;;;;;;;21.11;51.45;101277.72;5078633;28;3971;-61
2022/11/28 05:35:08;;;;;;;;;;;;;;;21.11;51.50;101271.97;5087017;28;5239;-61
2022/11/28 05:37:34;;;;;;;;;;;;;;;21.11;51.41;101271.97;5080260;28;4309;-61
2022/11/28 05:40:00;;;;;;;;;;;;;;;21.10;51.60;101270.50;5085623;28;4060;-61
2022/11/28 05:42:29;;;;;;;;;;;;;;;21.10;51.49;101264.72;5079949;28;4248;-61
2022/11/28 05:44:55;;;;;;;;;;;;;;;21.09;51.55;101261.09;5069551;28;4116;-61
2022/11/28 05:47:22;;;;;;;;;;;;;;;21.09;51.73;101257.47;5073109;28;4349;-61
2022/11/28 05:49:49;;;;;;;;;;;;;;;21.09;51.73;101257.47;5074481;28;5536;-61
2022/11/28 05:52:15;;;;;;;;;;;;;;;21.09;51.75;101257.47;5076933;28;4094;-61
2022/11/28 05:54:41;;;;;;;;;;;;;;;21.11;51.84;101254.69;5073398;28;4180;-61
2022/11/28 05:57:08;;;;;;;;;;;;;;;20.95;51.23;101253.88;5078082;28;5187;-60
2022/11/28 05:59:34;;;;;;;;;;;;;;;21.00;51.53;101252.69;5071905;28;4292;-60
2022/11/28 06:02:00;;;;;;;;;;;;;;;21.05;50.86;101240.75;5073304;28;4161;-60
2022/11/28 06:04:27;;;;;;;;;;;;;;;21.11;51.61;101248.94;5081229;28;4206;-60
2022/11/28 06:06:53;;;;;;;;;;;;;;;21.14;51.38;101247.63;5076892;28;4374;-60
2022/11/28 06:09:20;;;;;;;;;;;;;;;21.21;51.84;101251.56;5065174;28;5222;-68
2022/11/28 06:12:03;;;;;;;;;;;;;;;21.34;52.79;101239.25;5066808;28;4432;-65
2022/11/28 06:14:35;;;;;;;;;;;;;;;21.33;52.59;101227.00;5062363;28;4250;-64
2022/11/28 06:17:02;;;;;;;;;;;;;;;21.28;52.78;101233.19;5070227;28;4013;-65
2022/11/28 06:19:28;;;;;;;;;;;;;;;21.25;53.41;101234.47;5072139;28;4069;-65
2022/11/28 06:21:55;;;;;;;;;;;;;;;21.16;52.98;101227.56;5074511;28;5259;-65
2022/11/28 06:24:21;;;;;;;;;;;;;;;21.17;52.48;101229.09;5080339;28;4133;-65
2022/11/28 06:26:48;;;;;;;;;;;;;;;21.20;53.08;101230.66;5069075;28;5307;-65
2022/11/28 06:29:14;;;;;;;;;;;;;;;21.29;52.86;101232.53;5075888;28;4017;-65
2022/11/28 06:31:40;;;;;;;;;;;;;;;21.33;53.17;101223.38;5078973;28;5210;-65
2022/11/28 06:34:08;;;;;;;;;;;;;;;21.37;53.10;101223.53;5079454;28;4167;-65
2022/11/28 06:36:35;;;;;;;;;;;;;;;21.41;53.25;101220.16;5067315;28;5521;-65
2022/11/28 06:39:01;;;;;;;;;;;;;;;21.45;53.37;101220.34;5075716;28;4105;-65
2022/11/28 06:41:27;;;;;;;;;;;;;;;21.48;53.52;101221.94;5076670;28;4228;-65
2022/11/28 06:43:54;;;;;;;;;;;;;;;21.52;53.45;101227.88;5076078;28;4142;-65
2022/11/28 06:46:20;;;;;;;;;;;;;;;21.53;53.31;101217.84;5074934;28;5525;-66
2022/11/28 06:48:47;;;;;;;;;;;;;;;21.56;53.13;101233.84;5079363;28;6345;-65
2022/11/28 06:51:13;;;;;;;;;;;;;;;21.58;53.11;101224.53;5074351;28;4264;-64
2022/11/28 06:53:40;;;;;;;;;;;;;;;21.56;52.76;101233.09;5075593;28;4123;-60
2022/11/28 06:56:07;;;;;;;;;;;;;;;21.85;53.91;101241.69;5080002;28;4194;-58
2022/11/28 06:58:33;;;;;;;;;;;;;;;22.02;54.04;101231.63;5079584;28;4168;-57
2022/11/28 07:01:12;;;;;;;;;;;;;;;22.18;53.40;101220.84;5086812;28;4133;-56
2022/11/28 07:03:39;;;;;;;;;;;;;;;22.27;53.21;101227.00;5083844;28;4085;-62
2022/11/28 07:06:05;;;;;;;;;;;;;;;22.30;53.01;101225.69;5080174;28;5170;-56
2022/11/28 07:08:31;;;;;;;;;;;;;;;22.37;52.55;101221.66;5074918;28;5468;-61
2022/11/28 07:11:05;;;;;;;;;;;;;;;22.35;52.80;101205.00;5084544;28;4147;-60
2022/11/28 07:13:31;;;;;;;;;;;;;;;22.45;52.25;101212.59;5081909;28;4402;-61
2022/11/28 07:15:57;;;;;;;;;;;;;;;22.47;51.99;101222.13;5081215;28;4365;-62
2022/11/28 07:18:24;;;;;;;;;;;;;;;22.52;51.68;101223.78;5077398;28;4187;-56
2022/11/28 07:20:50;;;;;;;;;;;;;;;22.55;51.89;101219.56;5077771;28;5620;-60
2022/11/28 07:23:16;;;;;;;;;;;;;;;22.62;51.94;101214.06;5073480;28;4338;-57
2022/11/28 07:25:43;;;;;;;;;;;;;;;22.68;51.54;101220.09;5066516;28;4130;-56
2022/11/28 07:28:09;;;;;;;;;;;;;;;22.69;51.27;101221.59;5077117;28;4182;-61
2022/11/28 07:30:35;;;;;;;;;;;;;;;22.73;51.13;101221.75;5074560;28;4177;-57
2022/11/28 07:33:02;;;;;;;;;;;;;;;22.69;51.13;101224.47;5074913;28;5167;-59
2022/11/28 07:35:28;;;;;;;;;;;;;;;22.73;50.43;101219.59;5075032;28;4200;-62
2022/11/28 07:37:54;;;;;;;;;;;;;;;22.49;48.66;101213.53;5073868;27;5286;-58
2022/11/28 07:40:21;;;;;;;;;;;;;;;22.40;47.05;101217.47;5076744;28;4123;-60
2022/11/28 07:42:48;;;;;;;;;;;;;;;22.28;46.02;101219.81;5072545;28;4231;-62
2022/11/28 07:45:14;;;;;;;;;;;;;;;22.14;45.27;101212.00;5080498;28;4219;-59
2022/11/28 07:47:40;;;;;;;;;;;;;;;22.17;44.33;101213.59;5080904;27;4169;-59
2022/11/28 07:50:07;;;;;;;;;;;;;;;22.15;43.31;101215.59;5080636;28;4027;-62
2022/11/28 07:52:33;;;;;;;;;;;;;;;22.23;43.11;101209.50;5077698;28;4157;-63
2022/11/28 07:54:59;;;;;;;;;;;;;;;22.28;41.94;101191.72;5087233;28;5174;-62
2022/11/28 07:57:26;;;;;;;;;;;;;;;22.18;42.25;101197.75;5085733;28;4392;-65
2022/11/28 07:59:52;;;;;;;;;;;;;;;22.20;42.05;101199.25;5090660;28;5241;-58
2022/11/28 08:02:18;;;;;;;;;;;;;;;22.14;41.80;101205.47;5073902;28;5353;-65
2022/11/28 08:04:45;;;;;;;;;;;;;;;22.08;41.50;101203.09;5077691;28;4113;-64
2022/11/28 08:07:18;;;;;;;;;;;;;;;22.02;40.95;101202.81;5082354;28;5213;-64
2022/11/28 08:09:45;;;;;;;;;;;;;;;22.10;41.07;101206.03;5087249;28;4177;-57
2022/11/28 08:12:11;;;;;;;;;;;;;;;22.08;40.67;101200.19;5086334;28;5072;-61
2022/11/28 08:14:37;;;;;;;;;;;;;;;22.07;40.90;101195.81;5082364;28;4164;-60
2022/11/28 08:17:04;;;;;;;;;;;;;;;21.97;40.50;101201.13;5084825;28;4156;-66
2022/11/28 08:19:30;;;;;;;;;;;;;;;22.12;41.57;101199.63;5083914;28;5270;-66
2022/11/28 08:22:00;;;;;;;;;;;;;;;22.24;42.26;101182.13;5084750;28;4123;-65
2022/11/28 08:24:26;;;;;;;;;;;;;;;22.35;42.68;101201.38;5082302;28;5303;-67
2022/11/28 08:26:53;;;;;;;;;;;;;;;22.36;42.90;101189.19;5084283;28;4428;-65
2022/11/28 08:29:19;;;;;;;;;;;;;;;22.38;43.42;101183.50;5087843;28;4288;-66
2022/11/28 08:31:46;;;;;;;;;;;;;;;22.44;43.61;101183.00;5090224;28;4184;-66
2022/11/28 08:34:12;;;;;;;;;;;;;;;22.43;44.19;101187.31;5084557;28;4123;-65
2022/11/28 08:36:39;;;;;;;;;;;;;;;22.43;44.17;101180.81;5076259;27;5084;-66
2022/11/28 08:39:05;;;;;;;;;;;;;;;22.54;44.08;101191.34;5085071;28;4549;-65
2022/11/28 08:41:49;;;;;;;;;;;;;;;22.57;44.08;101179.25;5082585;27;4488;-65
2022/11/28 08:44:16;;;;;;;;;;;;;;;22.60;44.08;101188.75;5077366;28;4354;-65
2022/11/28 08:46:42;;;;;;;;;;;;;;;22.58;44.60;101192.28;5088100;28;5420;-65
2022/11/28 08:49:09;;;;;;;;;;;;;;;22.59;44.59;101193.03;5081652;28;5157;-65
2022/11/28 08:51:35;;;;;;;;;;;;;;;22.56;44.84;101200.88;5087849;27;4213;-65
2022/11/28 08:54:01;;;;;;;;;;;;;;;22.59;45.30;101201.69;5083398;28;5226;-65
2022/11/28 08:56:28;;;;;;;;;;;;;;;22.64;45.33;101214.16;5079814;28;4200;-65
2022/11/28 08:58:54;;;;;;;;;;;;;;;22.64;45.50;101205.50;5081002;28;4176;-64
2022/11/28 09:01:21;;;;;;;;;;;;;;;22.67;45.61;101204.16;5090092;28;5490;-67
2022/11/28 09:03:48;;;;;;;;;;;;;;;22.49;44.67;101201.25;5081004;27;5200;-60
2022/11/28 09:06:14;;;;;;;;;;;;;;;22.40;45.37;101210.94;5072699;28;4155;-61
2022/11/28 09:08:40;;;;;;;;;;;;;;;22.33;45.27;101207.06;5072250;27;5200;-63
2022/11/28 09:11:11;;;;;;;;;;;;;;;22.24;45.66;101210.97;5084559;28;5299;-64
2022/11/28 09:13:37;;;;;;;;;;;;;;;22.22;45.87;101208.78;5074061;27;5219;-62
2022/11/28 09:16:04;;;;;;;;;;;;;;;22.21;46.06;101212.28;5079459;28;3957;-61
2022/11/28 09:18:30;;;;;;;;;;;;;;;22.22;45.77;101202.22;5079331;27;5557;-62
2022/11/28 09:20:57;;;;;;;;;;;;;;;22.20;46.17;101199.25;5073414;27;4010;-62
2022/11/28 09:23:24;;;;;;;;;;;;;;;22.22;46.24;101199.34;5079951;27;5337;-63
2022/11/28 09:25:50;;;;;;;;;;;;;;;22.18;46.31;101197.03;5069132;27;4137;-63
2022/11/28 09:28:16;;;;;;;;;;;;;;;22.16;46.22;101206.31;5075312;28;4231;-59
2022/11/28 09:30:43;;;;;;;;;;;;;;;22.15;46.39;101192.53;5078556;28;4199;-63
2022/11/28 09:33:12;;;;;;;;;;;;;;;22.17;46.55;101199.16;5081474;28;5120;-62
2022/11/28 09:35:38;;;;;;;;;;;;;;;22.15;46.62;101187.53;5076365;28;4029;-63
2022/11/28 09:38:05;;;;;;;;;;;;;;;22.18;46.19;101182.59;5061084;28;4039;-64
2022/11/28 09:40:38;;;;;;;;;;;;;;;22.17;46.44;101195.50;5069663;28;4196;-61
2022/11/28 09:43:11;;;;;;;;;;;;;;;22.13;46.53;101201.88;5062162;28;3952;-63
2022/11/28 09:45:37;;;;;;;;;;;;;;;22.16;46.46;101200.53;5081715;28;4885;-64
2022/11/28 09:48:07;;;;;;;;;;;;;;;22.24;46.92;101210.97;5076658;28;4169;-56
2022/11/28 09:50:34;;;;;;;;;;;;;;;22.33;46.82;101209.94;5076846;28;5235;-59
2022/11/28 09:53:13;;;;;;;;;;;;;;;22.44;46.49;101217.66;5071257;28;4128;-63
2022/11/28 09:55:39;;;;;;;;;;;;;;;22.47;46.78;101204.03;5076586;28;4138;-63
2022/11/28 09:58:24;;;;;;;;;;;;;;;22.50;46.87;101202.75;5069155;28;4072;-61
2022/11/28 10:00:52;;;;;;;;;;;;;;;22.49;47.02;101201.25;5075525;28;4171;-66
2022/11/28 10:03:31;;;;;;;;;;;;;;;22.48;46.90;101200.50;5076490;28;4169;-66
2022/11/28 10:06:06;;;;;;;;;;;;;;;22.56;46.69;101195.09;5059205;28;4279;-65
2022/11/28 10:08:48;;;;;;;;;;;;;;;22.62;46.82;101191.72;5061685;28;4177;-65
2022/11/28 10:11:21;;;;;;;;;;;;;;;22.66;46.94;101183.22;5061814;28;4055;-65
2022/11/28 10:14:06;;;;;;;;;;;;;;;22.69;46.96;101184.06;5077105;28;4108;-65
2022/11/28 10:16:46;;;;;;;;;;;;;;;22.71;46.88;101175.47;5073808;28;4183;-65
2022/11/28 10:19:14;;;;;;;;;;;;;;;22.77;47.12;101178.63;5055720;28;4216;-64
2022/11/28 10:22:00;;;;;;;;;;;;;;;22.63;47.16;101170.13;5074196;28;6367;-65
2022/11/28 10:24:34;;;;;;;;;;;;;;;22.74;47.20;101168.38;5073020;28;4285;-64
2022/11/28 10:27:00;;;;;;;;;;;;;;;22.76;47.17;101168.47;5060822;28;5207;-66
2022/11/28 10:29:45;;;;;;;;;;;;;;;22.79;47.32;101162.13;5056251;28;4127;-64
2022/11/28 10:32:15;;;;;;;;;;;;;;;22.84;47.46;101165.94;5068495;28;4093;-64
2022/11/28 10:34:47;;;;;;;;;;;;;;;22.85;47.57;101167.41;5053942;28;4240;-64
2022/11/28 10:37:24;;;;;;;;;;;;;;;22.85;47.41;101170.28;5061482;28;5468;-65
2022/11/28 10:39:50;;;;;;;;;;;;;;;22.84;47.54;101171.69;5077070;28;4037;-65
2022/11/28 10:42:20;;;;;;;;;;;;;;;22.87;47.80;101164.59;5070883;28;4057;-65
2022/11/28 10:44:52;;;;;;;;;;;;;;;22.87;47.82;101163.88;5070781;28;4034;-64
2022/11/28 10:47:34;;;;;;;;;;;;;;;22.86;47.76;101157.34;5056244;28;4154;-65
2022/11/28 10:50:15;;;;;;;;;;;;;;;22.89;47.81;101156.03;5078122;28;4015;-65
2022/11/28 10:52:43;;;;;;;;;;;;;;;22.91;47.86;101153.22;5054875;28;3991;-65
2022/11/28 10:55:17;;;;;;;;;;;;;;;22.93;47.92;101156.19;5057952;28;5261;-65
2022/11/28 10:57:53;;;;;;;;;;;;;;;22.96;47.68;101154.88;5054959;28;4225;-63
2022/11/28 11:00:19;;;;;;;;;;;;;;;23.00;47.82;101148.53;5053909;28;4009;-66
2022/11/28 11:02:53;;;;;;;;;;;;;;;22.95;47.76;101149.75;5067840;28;4114;-65
2022/11/28 11:05:20;;;;;;;;;;;;;;;22.96;47.89;101148.34;5078230;28;4185;-66
2022/11/28 11:08:29;;;;;;;;;;;;;;;22.94;47.68;101157.66;5045309;28;4816;-66
2022/11/28 11:11:06;;;;;;;;;;;;;;;22.96;47.38;101148.34;5076973;28;4242;-65
2022/11/28 11:13:33;;;;;;;;;;;;;;;22.96;47.28;101160.63;5061284;28;5474;-62
2022/11/28 11:16:03;;;;;;;;;;;;;;;22.99;47.45;101165.13;5076928;28;4126;-64
2022/11/28 11:18:33;;;;;;;;;;;;;;;23.03;47.16;101147.22;5056070;28;4201;-65
2022/11/28 11:21:09;;;;;;;;;;;;;;;23.05;47.35;101149.44;5073957;28;5503;-65
2022/11/28 11:23:35;;;;;;;;;;;;;;;23.05;47.03;101144.41;5077506;28;4189;-65
2022/11/28 11:26:03;;;;;;;;;;;;;;;23.09;47.08;101152.47;5082842;28;4191;-65
2022/11/28 11:28:30;;;;;;;;;;;;;;;23.12;47.18;101151.19;5089336;28;4112;-62
2022/11/28 11:30:57;;;;;;;;;;;;;;;23.11;46.92;101147.53;5089328;28;4200;-66
2022/11/28 11:33:23;;;;;;;;;;;;;;;23.12;47.24;101154.06;5082685;28;5364;-66
2022/11/28 11:35:50;;;;;;;;;;;;;;;23.13;47.37;101149.75;5066480;28;4202;-65
2022/11/28 11:38:19;;;;;;;;;;;;;;;23.13;47.20;101146.88;5067189;28;3933;-65
2022/11/28 11:40:46;;;;;;;;;;;;;;;23.13;47.32;101135.31;5096996;28;4086;-65
2022/11/28 11:43:21;;;;;;;;;;;;;;;23.13;47.10;101138.19;5093060;28;4152;-64
2022/11/28 11:45:48;;;;;;;;;;;;;;;23.14;47.20;101128.16;5087416;28;4154;-64
2022/11/28 11:48:19;;;;;;;;;;;;;;;23.19;47.17;101132.66;5077752;28;4060;-65
2022/11/28 11:50:52;;;;;;;;;;;;;;;23.19;47.26;101121.13;5074644;28;4408;-64
2022/11/28 11:53:18;;;;;;;;;;;;;;;23.18;47.49;101128.28;5088891;28;4064;-65
2022/11/28 11:55:44;;;;;;;;;;;;;;;23.16;47.54;101119.56;5089863;27;4172;-65
2022/11/28 11:58:11;;;;;;;;;;;;;;;23.14;47.65;101111.56;5091237;28;4143;-65
2022/11/28 12:00:38;;;;;;;;;;;;;;;23.16;47.36;101110.91;5068941;28;4521;-64
2022/11/28 12:03:24;;;;;;;;;;;;;;;23.15;47.43;101107.25;5089426;28;4182;-64
2022/11/28 12:05:58;;;;;;;;;;;;;;;23.18;47.71;101100.16;5090031;28;4495;-66
2022/11/28 12:08:43;;;;;;;;;;;;;;;23.20;47.63;101096.59;5074282;28;4113;-65
2022/11/28 12:11:15;;;;;;;;;;;;;;;23.22;47.72;101088.00;5090049;28;4566;-65
2022/11/28 12:13:41;;;;;;;;;;;;;;;23.26;47.53;101093.94;5085294;28;4306;-65
2022/11/28 12:16:07;;;;;;;;;;;;;;;23.21;47.80;101095.94;5087931;28;3961;-65
2022/11/28 12:18:53;;;;;;;;;;;;;;;23.23;47.60;101101.06;5089885;28;4127;-65
2022/11/28 12:21:22;;;;;;;;;;;;;;;23.25;47.97;101100.38;5079357;28;4371;-65
2022/11/28 12:24:04;;;;;;;;;;;;;;;22.86;46.92;101105.38;5063367;28;4128;-60
2022/11/28 12:26:41;;;;;;;;;;;;;;;22.72;46.83;101101.91;5069815;28;4185;-59
2022/11/28 12:29:07;;;;;;;;;;;;;;;22.86;47.21;101107.50;5092969;28;4118;-60
2022/11/28 12:31:41;;;;;;;;;;;;;;;22.91;46.75;101107.00;5089077;28;4020;-57
2022/11/28 12:34:27;;;;;;;;;;;;;;;22.92;46.81;101096.94;5070895;28;4447;-62
2022/11/28 12:37:12;;;;;;;;;;;;;;;22.94;47.03;101093.41;5061473;28;4157;-58
2022/11/28 12:39:53;;;;;;;;;;;;;;;22.91;46.93;101097.63;5083792;28;4216;-56
2022/11/28 12:42:19;;;;;;;;;;;;;;;22.81;47.03;101086.38;5078298;28;4652;-59
2022/11/28 12:45:07;;;;;;;;;;;;;;;22.96;47.19;101088.44;5061708;28;5172;-57
2022/11/28 12:47:39;;;;;;;;;;;;;;;23.03;46.91;101088.72;5059896;28;5216;-54
2022/11/28 12:50:21;;;;;;;;;;;;;;;23.03;47.05;101086.56;5088947;28;5037;-57
2022/11/28 12:52:56;;;;;;;;;;;;;;;23.03;46.82;101089.44;5062760;28;5403;-59
2022/11/28 12:55:32;;;;;;;;;;;;;;;23.00;47.36;101082.84;5070339;28;5173;-60
2022/11/28 12:58:05;;;;;;;;;;;;;;;22.93;46.96;101084.00;5060184;28;5305;-59
2022/11/28 13:00:32;;;;;;;;;;;;;;;22.76;47.42;101084.75;5057754;28;3947;-61
2022/11/28 13:03:14;;;;;;;;;;;;;;;22.94;47.47;101076.81;5070879;28;5254;-60